createdAt,value
2023-03-29T00:00:44.107Z,8.70
2023-03-29T00:03:12.431Z,8.42
2023-03-29T00:05:42.157Z,8.51
2023-03-29T00:08:14.460Z,8.25
2023-03-29T00:10:45.488Z,8.10
2023-03-29T00:13:13.635Z,8.11
2023-03-29T00:15:43.367Z,8.10
2023-03-29T00:18:11.594Z,8.11
2023-03-29T00:20:41.319Z,7.90
2023-03-29T00:23:09.492Z,7.79
2023-03-29T00:25:37.461Z,7.85
2023-03-29T00:28:06.043Z,7.81
2023-03-29T00:30:33.983Z,7.85
2023-03-29T00:33:02.117Z,7.93
2023-03-29T00:35:30.088Z,8.10
2023-03-29T00:37:59.585Z,8.24
2023-03-29T00:40:27.959Z,8.36
2023-03-29T00:42:56.974Z,8.32
2023-03-29T00:45:30.473Z,8.22
2023-03-29T00:48:02.846Z,8.36
2023-03-29T00:50:36.501Z,8.33
2023-03-29T00:53:10.454Z,8.42
2023-03-29T00:55:42.951Z,8.37
2023-03-29T00:58:15.707Z,8.33
2023-03-29T01:00:52.258Z,8.36
2023-03-29T01:03:27.637Z,8.32
2023-03-29T01:06:01.361Z,8.43
2023-03-29T01:08:34.584Z,8.30
2023-03-29T01:11:07.242Z,8.32
2023-03-29T01:13:39.546Z,8.25
2023-03-29T01:16:10.195Z,8.21
2023-03-29T01:18:39.772Z,8.21
2023-03-29T01:21:23.592Z,8.19
2023-03-29T01:24:38.272Z,8.09
2023-03-29T01:27:14.097Z,8.09
2023-03-29T01:29:47.292Z,8.07
2023-03-29T01:32:22.396Z,8.10
2023-03-29T01:34:56.986Z,8.07
2023-03-29T01:37:31.502Z,8.08
2023-03-29T01:39:59.836Z,7.99
2023-03-29T01:42:40.238Z,8.07
2023-03-29T01:45:18.459Z,7.98
2023-03-29T01:47:53.315Z,8.05
2023-03-29T01:50:28.480Z,7.99
2023-03-29T01:53:00.841Z,7.98
2023-03-29T01:55:33.695Z,7.92
2023-03-29T01:58:04.077Z,7.89
2023-03-29T02:00:36.305Z,7.79
2023-03-29T02:03:09.773Z,7.81
2023-03-29T02:05:39.825Z,7.82
2023-03-29T02:08:11.014Z,7.75
2023-03-29T02:10:39.359Z,7.67
2023-03-29T02:13:08.206Z,7.64
2023-03-29T02:15:38.682Z,7.67
2023-03-29T02:18:08.086Z,7.67
2023-03-29T02:20:40.703Z,7.65
2023-03-29T02:23:14.456Z,7.60
2023-03-29T02:25:45.810Z,7.56
2023-03-29T02:28:15.369Z,7.56
2023-03-29T02:30:54.843Z,7.58
2023-03-29T02:33:29.215Z,7.53
2023-03-29T02:36:02.018Z,7.56
2023-03-29T02:38:33.836Z,7.47
2023-03-29T02:41:04.080Z,7.45
2023-03-29T02:43:33.869Z,7.52
2023-03-29T02:46:04.539Z,7.50
2023-03-29T02:48:35.139Z,7.42
2023-03-29T02:51:07.044Z,7.43
2023-03-29T02:53:42.963Z,7.43
2023-03-29T02:56:10.950Z,7.49
2023-03-29T02:58:39.414Z,7.48
2023-03-29T03:01:10.564Z,7.49
2023-03-29T03:03:38.993Z,7.50
2023-03-29T03:06:07.554Z,7.53
2023-03-29T03:08:35.556Z,7.53
2023-03-29T03:11:03.939Z,7.48
2023-03-29T03:13:32.022Z,7.45
2023-03-29T03:16:01.304Z,7.38
2023-03-29T03:18:30.974Z,7.39
2023-03-29T03:21:02.221Z,7.34
2023-03-29T03:23:30.671Z,7.31
2023-03-29T03:25:59.097Z,7.23
2023-03-29T03:28:27.508Z,7.26
2023-03-29T03:30:55.604Z,7.24
2023-03-29T03:33:24.196Z,7.21
2023-03-29T03:35:57.358Z,7.19
2023-03-29T03:38:26.093Z,7.20
2023-03-29T03:40:59.540Z,7.26
2023-03-29T03:43:28.188Z,7.15
2023-03-29T03:45:57.828Z,7.15
2023-03-29T03:48:26.482Z,7.14
2023-03-29T03:50:57.546Z,7.10
2023-03-29T03:53:28.656Z,7.20
2023-03-29T03:55:57.195Z,7.21
2023-03-29T03:58:26.107Z,7.23
2023-03-29T04:00:55.139Z,7.24
2023-03-29T04:03:24.139Z,7.21
2023-03-29T04:05:52.356Z,7.25
2023-03-29T04:08:22.942Z,7.20
2023-03-29T04:10:54.138Z,7.29
2023-03-29T04:13:22.642Z,7.19
2023-03-29T04:15:54.348Z,7.25
2023-03-29T04:18:22.929Z,7.29
2023-03-29T04:20:51.613Z,7.32
2023-03-29T04:23:21.040Z,7.27
2023-03-29T04:25:49.527Z,7.29
2023-03-29T04:28:17.451Z,7.33
2023-03-29T04:30:47.352Z,7.30
2023-03-29T04:33:15.538Z,7.25
2023-03-29T04:35:43.694Z,7.36
2023-03-29T04:38:11.672Z,7.29
2023-03-29T04:40:41.006Z,7.36
2023-03-29T04:43:08.978Z,7.30
2023-03-29T04:45:37.169Z,7.24
2023-03-29T04:48:05.758Z,7.20
2023-03-29T04:50:33.727Z,7.14
2023-03-29T04:53:01.707Z,7.23
2023-03-29T04:55:29.683Z,7.23
2023-03-29T04:57:58.942Z,7.23
2023-03-29T05:00:27.634Z,7.27
2023-03-29T05:02:55.880Z,7.12
2023-03-29T05:05:27.095Z,7.22
2023-03-29T05:07:55.519Z,7.18
2023-03-29T05:10:24.379Z,7.25
2023-03-29T05:12:54.239Z,7.29
2023-03-29T05:15:24.559Z,7.27
2023-03-29T05:17:52.549Z,7.34
2023-03-29T05:20:20.865Z,7.31
2023-03-29T05:22:48.890Z,7.38
2023-03-29T05:25:18.481Z,7.41
2023-03-29T05:27:46.986Z,7.47
2023-03-29T05:30:16.155Z,7.48
2023-03-29T05:32:46.995Z,7.58
2023-03-29T05:35:15.568Z,7.53
2023-03-29T05:37:43.922Z,7.59
2023-03-29T05:40:13.446Z,7.62
2023-03-29T05:42:41.946Z,7.58
2023-03-29T05:45:11.655Z,7.70
2023-03-29T05:47:39.678Z,7.75
2023-03-29T05:50:11.272Z,7.78
2023-03-29T05:52:39.734Z,7.77
2023-03-29T05:55:08.785Z,7.80
2023-03-29T05:57:37.615Z,7.87
2023-03-29T06:00:14.765Z,7.77
2023-03-29T06:02:42.902Z,7.87
2023-03-29T06:05:13.903Z,7.99
2023-03-29T06:07:42.470Z,8.07
2023-03-29T06:10:11.692Z,8.04
2023-03-29T06:12:39.852Z,8.19
2023-03-29T06:15:08.998Z,8.23
2023-03-29T06:17:37.626Z,8.20
2023-03-29T06:20:10.481Z,8.17
2023-03-29T06:22:40.013Z,8.12
2023-03-29T06:25:09.589Z,8.13
2023-03-29T06:27:37.890Z,8.26
2023-03-29T06:30:06.968Z,8.30
2023-03-29T06:32:35.911Z,8.28
2023-03-29T06:35:05.097Z,8.30
2023-03-29T06:37:33.105Z,8.39
2023-03-29T06:40:07.008Z,8.48
2023-03-29T06:42:35.741Z,8.53
2023-03-29T06:45:03.822Z,8.62
2023-03-29T06:47:32.238Z,8.62
2023-03-29T06:50:00.186Z,8.57
2023-03-29T06:52:28.050Z,8.57
2023-03-29T06:54:57.308Z,8.78
2023-03-29T06:57:27.567Z,8.78
2023-03-29T06:59:55.543Z,8.73
2023-03-29T07:02:23.512Z,8.75
2023-03-29T07:04:51.755Z,8.82
2023-03-29T07:07:27.827Z,8.90
2023-03-29T07:09:55.751Z,9.02
2023-03-29T07:12:24.396Z,9.04
2023-03-29T07:14:54.372Z,9.20
2023-03-29T07:17:22.810Z,9.31
2023-03-29T07:19:50.728Z,9.33
2023-03-29T07:22:19.500Z,9.33
2023-03-29T07:24:47.314Z,9.30
2023-03-29T07:27:15.517Z,9.22
2023-03-29T07:29:43.727Z,9.40
2023-03-29T07:32:13.140Z,9.51
2023-03-29T07:34:42.146Z,9.61
2023-03-29T07:37:10.037Z,9.68
2023-03-29T07:39:38.496Z,9.61
2023-03-29T07:42:06.692Z,9.72
2023-03-29T07:44:35.681Z,9.85
2023-03-29T07:47:04.455Z,9.91
2023-03-29T07:49:33.742Z,10.13
2023-03-29T07:52:01.753Z,10.27
2023-03-29T07:54:32.458Z,10.40
2023-03-29T07:57:00.507Z,10.43
2023-03-29T07:59:28.637Z,10.26
2023-03-29T08:01:56.769Z,10.22
2023-03-29T08:04:24.816Z,10.39
2023-03-29T08:06:54.315Z,10.32
2023-03-29T08:09:22.395Z,10.24
2023-03-29T08:11:50.765Z,10.16
2023-03-29T08:14:19.467Z,10.10
2023-03-29T08:16:47.580Z,10.07
2023-03-29T08:19:16.656Z,10.21
2023-03-29T08:21:44.606Z,10.33
2023-03-29T08:24:13.912Z,10.18
2023-03-29T08:26:42.175Z,10.18
2023-03-29T08:29:10.497Z,10.07
2023-03-29T08:31:38.549Z,10.32
2023-03-29T08:34:06.520Z,10.27
2023-03-29T08:36:34.649Z,10.39
2023-03-29T08:39:03.442Z,10.55
2023-03-29T08:41:46.246Z,10.72
2023-03-29T08:44:26.677Z,10.87
2023-03-29T08:47:06.641Z,10.97
2023-03-29T08:49:37.964Z,11.15
2023-03-29T08:52:23.469Z,11.26
2023-03-29T08:54:57.418Z,11.22
2023-03-29T08:57:31.753Z,11.21
2023-03-29T09:00:01.905Z,11.22
2023-03-29T09:02:34.794Z,11.37
2023-03-29T09:05:10.223Z,11.28
2023-03-29T09:07:38.195Z,11.33
2023-03-29T09:10:06.409Z,11.28
2023-03-29T09:12:48.814Z,11.42
2023-03-29T09:15:20.624Z,11.60
2023-03-29T09:17:59.537Z,11.72
2023-03-29T09:20:39.251Z,11.92
2023-03-29T09:23:18.428Z,11.91
2023-03-29T09:25:55.886Z,11.89
2023-03-29T09:28:36.119Z,11.73
2023-03-29T09:31:13.466Z,11.76
2023-03-29T09:33:43.789Z,11.86
2023-03-29T09:36:17.595Z,11.99
2023-03-29T09:38:49.893Z,11.85
2023-03-29T09:41:26.766Z,11.86
2023-03-29T09:43:59.222Z,12.01
2023-03-29T09:46:30.728Z,12.17
2023-03-29T09:48:58.945Z,12.26
2023-03-29T09:51:31.477Z,12.36
2023-03-29T09:54:00.743Z,12.46
2023-03-29T09:56:29.043Z,12.86
2023-03-29T09:58:58.799Z,12.86
2023-03-29T10:01:37.253Z,12.93
2023-03-29T10:04:08.289Z,12.97
2023-03-29T10:06:37.793Z,13.06
2023-03-29T10:09:15.517Z,13.07
2023-03-29T10:11:47.864Z,12.98
2023-03-29T10:14:19.990Z,12.92
2023-03-29T10:16:48.272Z,13.06
2023-03-29T10:19:21.867Z,13.29
2023-03-29T10:21:51.678Z,13.12
2023-03-29T10:24:21.744Z,13.22
2023-03-29T10:26:56.522Z,13.24
2023-03-29T10:29:27.863Z,13.01
2023-03-29T10:31:56.671Z,12.95
2023-03-29T10:34:28.389Z,12.65
2023-03-29T10:37:01.214Z,12.85
2023-03-29T10:39:34.637Z,12.78
2023-03-29T10:42:05.441Z,12.89
2023-03-29T10:44:37.744Z,13.13
2023-03-29T10:47:16.410Z,13.34
2023-03-29T10:49:47.072Z,13.64
2023-03-29T10:52:17.446Z,13.42
2023-03-29T10:54:46.408Z,13.59
2023-03-29T10:57:17.786Z,13.73
2023-03-29T10:59:54.588Z,13.66
2023-03-29T11:03:02.618Z,13.52
2023-03-29T11:05:35.013Z,13.47
2023-03-29T11:08:21.480Z,13.48
2023-03-29T11:11:04.134Z,13.56
2023-03-29T11:13:42.393Z,13.16
2023-03-29T11:16:21.711Z,13.15
2023-03-29T11:19:13.413Z,13.08
2023-03-29T11:21:50.596Z,13.05
2023-03-29T11:24:29.023Z,12.65
2023-03-29T11:27:13.719Z,12.56
2023-03-29T11:29:50.103Z,12.66
2023-03-29T11:32:31.744Z,12.53
2023-03-29T11:35:09.326Z,12.54
2023-03-29T11:37:44.587Z,12.58
2023-03-29T11:40:39.470Z,12.56
2023-03-29T11:43:15.344Z,12.62
2023-03-29T11:45:50.768Z,12.81
2023-03-29T11:48:25.211Z,12.57
2023-03-29T11:51:00.775Z,12.32
2023-03-29T11:53:34.520Z,12.32
2023-03-29T11:56:12.052Z,12.44
2023-03-29T11:58:46.031Z,12.51
2023-03-29T12:01:17.940Z,12.49
2023-03-29T12:03:51.588Z,12.50
2023-03-29T12:06:24.598Z,12.70
2023-03-29T12:08:57.525Z,12.92
2023-03-29T12:11:31.447Z,12.82
2023-03-29T12:14:05.714Z,12.79
2023-03-29T12:16:42.325Z,12.68
2023-03-29T12:19:19.280Z,12.56
2023-03-29T12:21:49.526Z,12.51
2023-03-29T12:24:20.744Z,12.56
2023-03-29T12:27:13.193Z,12.62
2023-03-29T12:29:59.684Z,12.78
2023-03-29T12:32:46.113Z,12.80
2023-03-29T12:35:32.241Z,12.70
2023-03-29T12:38:09.843Z,12.67
2023-03-29T12:40:42.950Z,12.82
2023-03-29T12:43:21.264Z,12.95
2023-03-29T12:45:51.023Z,13.11
2023-03-29T12:48:23.481Z,13.00
2023-03-29T12:50:54.811Z,12.93
2023-03-29T12:53:27.148Z,12.76
2023-03-29T12:56:09.293Z,12.70
2023-03-29T12:59:07.842Z,13.28
2023-03-29T13:01:37.265Z,13.43
2023-03-29T13:04:23.929Z,13.59
2023-03-29T13:07:03.207Z,13.47
2023-03-29T13:09:35.857Z,13.44
2023-03-29T13:12:14.588Z,13.65
2023-03-29T13:14:46.391Z,13.74
2023-03-29T13:17:25.701Z,13.87
2023-03-29T13:20:22.657Z,13.65
2023-03-29T13:23:04.681Z,13.68
2023-03-29T13:25:53.840Z,13.51
2023-03-29T13:28:27.986Z,13.56
2023-03-29T13:31:01.995Z,13.64
2023-03-29T13:34:01.518Z,13.85
2023-03-29T13:36:41.916Z,13.71
2023-03-29T13:39:21.203Z,13.66
2023-03-29T13:41:51.204Z,13.82
2023-03-29T13:44:27.955Z,14.15
2023-03-29T13:47:17.629Z,14.16
2023-03-29T13:49:57.048Z,14.13
2023-03-29T13:52:30.129Z,14.18
2023-03-29T13:55:04.425Z,14.29
2023-03-29T13:57:46.260Z,14.35
2023-03-29T14:00:23.048Z,14.24
2023-03-29T14:02:56.600Z,14.30
2023-03-29T14:05:31.773Z,14.35
2023-03-29T14:08:09.088Z,14.46
2023-03-29T14:10:44.079Z,14.15
2023-03-29T14:13:14.929Z,14.14
2023-03-29T14:15:46.568Z,14.09
2023-03-29T14:18:18.291Z,13.91
2023-03-29T14:20:49.129Z,14.02
2023-03-29T14:23:21.861Z,14.13
2023-03-29T14:25:51.595Z,14.01
2023-03-29T14:28:21.934Z,14.03
2023-03-29T14:30:52.853Z,14.10
2023-03-29T14:33:33.531Z,14.08
2023-03-29T14:36:05.198Z,14.09
2023-03-29T14:38:35.460Z,14.06
2023-03-29T14:41:05.103Z,14.22
2023-03-29T14:43:33.819Z,14.09
2023-03-29T14:46:06.116Z,14.24
2023-03-29T14:48:36.188Z,14.18
2023-03-29T14:51:04.987Z,13.81
2023-03-29T14:53:38.090Z,13.79
2023-03-29T14:56:12.458Z,13.63
2023-03-29T14:58:41.601Z,13.57
2023-03-29T15:01:17.659Z,13.52
2023-03-29T15:03:52.499Z,13.59
2023-03-29T15:06:22.792Z,13.61
2023-03-29T15:09:02.102Z,13.50
2023-03-29T15:11:34.528Z,13.47
2023-03-29T15:14:04.643Z,13.50
2023-03-29T15:16:33.739Z,13.35
2023-03-29T15:19:03.150Z,13.28
2023-03-29T15:21:35.607Z,13.41
2023-03-29T15:24:05.141Z,13.34
2023-03-29T15:26:37.707Z,13.41
2023-03-29T15:29:13.481Z,13.41
2023-03-29T15:31:43.962Z,13.49
2023-03-29T15:34:13.955Z,13.57
2023-03-29T15:36:43.794Z,13.61
2023-03-29T15:39:13.893Z,13.71
2023-03-29T15:41:43.766Z,13.74
2023-03-29T15:44:12.183Z,13.79
2023-03-29T15:46:40.259Z,13.92
2023-03-29T15:49:13.767Z,13.90
2023-03-29T15:51:42.445Z,13.90
2023-03-29T15:54:12.277Z,13.88
2023-03-29T15:56:54.674Z,13.82
2023-03-29T15:59:23.096Z,13.95
2023-03-29T16:01:52.213Z,13.93
2023-03-29T16:04:22.199Z,14.03
2023-03-29T16:06:52.846Z,14.11
2023-03-29T16:09:22.609Z,14.14
2023-03-29T16:11:53.490Z,14.17
2023-03-29T16:14:24.356Z,14.21
2023-03-29T16:16:53.314Z,14.17
2023-03-29T16:19:22.902Z,14.18
2023-03-29T16:21:51.621Z,14.10
2023-03-29T16:24:22.465Z,13.99
2023-03-29T16:26:55.451Z,14.07
2023-03-29T16:29:24.652Z,14.08
2023-03-29T16:31:53.928Z,14.13
2023-03-29T16:34:23.168Z,14.05
2023-03-29T16:36:53.073Z,14.08
2023-03-29T16:39:21.901Z,14.03
2023-03-29T16:41:50.404Z,13.97
2023-03-29T16:44:24.545Z,14.05
2023-03-29T16:46:57.491Z,14.05
2023-03-29T16:49:26.088Z,14.08
2023-03-29T16:51:54.282Z,14.04
2023-03-29T16:54:26.045Z,14.06
2023-03-29T16:56:54.462Z,14.03
2023-03-29T16:59:24.058Z,14.04
2023-03-29T17:01:52.209Z,13.92
2023-03-29T17:04:20.715Z,13.93
2023-03-29T17:06:48.968Z,13.94
2023-03-29T17:09:17.840Z,13.95
2023-03-29T17:11:46.079Z,13.96
2023-03-29T17:14:14.293Z,13.92
2023-03-29T17:16:44.092Z,13.93
2023-03-29T17:19:12.178Z,13.93
2023-03-29T17:21:42.763Z,13.96
2023-03-29T17:24:11.466Z,13.93
2023-03-29T17:26:40.066Z,13.93
2023-03-29T17:29:08.280Z,13.88
2023-03-29T17:31:36.884Z,13.86
2023-03-29T17:34:06.357Z,13.87
2023-03-29T17:36:37.907Z,13.86
2023-03-29T17:39:06.372Z,13.88
2023-03-29T17:41:34.266Z,13.92
2023-03-29T17:44:02.351Z,13.85
2023-03-29T17:46:31.652Z,13.85
2023-03-29T17:49:00.875Z,13.86
2023-03-29T17:51:31.148Z,13.82
2023-03-29T17:53:59.024Z,13.85
2023-03-29T17:56:29.761Z,13.84
2023-03-29T17:58:59.590Z,13.85
2023-03-29T18:01:28.597Z,13.83
2023-03-29T18:03:59.780Z,13.75
2023-03-29T18:06:28.767Z,13.79
2023-03-29T18:09:01.510Z,13.76
2023-03-29T18:11:32.601Z,13.78
2023-03-29T18:14:02.172Z,13.69
2023-03-29T18:16:30.199Z,13.74
2023-03-29T18:18:58.155Z,13.70
2023-03-29T18:21:28.352Z,13.69
2023-03-29T18:23:57.882Z,13.69
2023-03-29T18:26:26.759Z,13.74
2023-03-29T18:28:55.237Z,13.68
2023-03-29T18:31:23.415Z,13.69
2023-03-29T18:33:51.684Z,13.69
2023-03-29T18:36:22.174Z,13.61
2023-03-29T18:38:50.843Z,13.65
2023-03-29T18:41:20.486Z,13.57
2023-03-29T18:43:51.600Z,13.55
2023-03-29T18:46:19.596Z,13.58
2023-03-29T18:48:48.383Z,13.55
2023-03-29T18:51:17.164Z,13.43
2023-03-29T18:53:45.218Z,13.47
2023-03-29T18:56:13.284Z,13.39
2023-03-29T18:58:42.813Z,13.36
2023-03-29T19:01:12.870Z,13.29
2023-03-29T19:03:41.567Z,13.22
2023-03-29T19:06:10.111Z,13.15
2023-03-29T19:08:41.475Z,13.22
2023-03-29T19:11:14.330Z,13.26
2023-03-29T19:13:46.353Z,13.26
2023-03-29T19:16:14.433Z,13.29
2023-03-29T19:18:42.356Z,13.28
2023-03-29T19:21:10.625Z,13.30
2023-03-29T19:23:38.935Z,13.33
2023-03-29T19:26:07.161Z,13.28
2023-03-29T19:28:35.480Z,13.23
2023-03-29T19:31:05.817Z,13.10
2023-03-29T19:33:33.955Z,13.11
2023-03-29T19:36:02.487Z,13.19
2023-03-29T19:38:33.340Z,13.04
2023-03-29T19:41:01.733Z,13.12
2023-03-29T19:43:31.696Z,13.07
2023-03-29T19:46:10.448Z,13.09
2023-03-29T19:48:39.038Z,13.09
2023-03-29T19:51:08.430Z,12.97
2023-03-29T19:53:38.589Z,13.03
2023-03-29T19:56:08.832Z,13.02
2023-03-29T19:58:37.588Z,13.00
2023-03-29T20:01:08.490Z,13.05
2023-03-29T20:03:36.806Z,13.06
2023-03-29T20:06:05.401Z,13.04
2023-03-29T20:08:33.784Z,13.01
2023-03-29T20:11:05.175Z,13.07
2023-03-29T20:13:38.607Z,13.09
2023-03-29T20:16:09.918Z,13.08
2023-03-29T20:18:40.523Z,13.04
2023-03-29T20:21:10.695Z,13.04
2023-03-29T20:23:39.266Z,13.03
2023-03-29T20:26:07.593Z,13.04
2023-03-29T20:28:37.866Z,13.02
2023-03-29T20:31:07.315Z,13.03
2023-03-29T20:33:37.504Z,13.05
2023-03-29T20:36:06.914Z,13.03
2023-03-29T20:38:35.296Z,13.01
2023-03-29T20:41:04.245Z,12.92
2023-03-29T20:43:37.498Z,12.92
2023-03-29T20:46:14.237Z,12.91
2023-03-29T20:48:53.811Z,12.94
2023-03-29T20:51:21.818Z,12.85
2023-03-29T20:53:51.042Z,12.93
2023-03-29T20:56:19.504Z,12.93
2023-03-29T20:58:47.717Z,12.87
2023-03-29T21:01:15.678Z,12.90
2023-03-29T21:03:45.573Z,12.89
2023-03-29T21:06:16.246Z,12.87
2023-03-29T21:08:48.279Z,12.86
2023-03-29T21:11:16.628Z,12.85
2023-03-29T21:13:45.348Z,12.81
2023-03-29T21:16:13.516Z,12.79
2023-03-29T21:18:41.748Z,12.81
2023-03-29T21:21:12.998Z,12.86
2023-03-29T21:23:42.585Z,12.81
2023-03-29T21:26:12.967Z,12.85
2023-03-29T21:28:42.450Z,12.76
2023-03-29T21:31:11.226Z,12.78
2023-03-29T21:33:39.236Z,12.73
2023-03-29T21:36:08.369Z,12.76
2023-03-29T21:38:37.725Z,12.75
2023-03-29T21:41:07.094Z,12.80
2023-03-29T21:43:35.989Z,12.73
2023-03-29T21:46:04.154Z,12.76
2023-03-29T21:48:32.433Z,12.71
2023-03-29T21:51:00.507Z,12.63
2023-03-29T21:53:30.271Z,12.66
2023-03-29T21:55:59.734Z,12.62
2023-03-29T21:58:28.424Z,12.66
2023-03-29T22:00:57.223Z,12.65
2023-03-29T22:03:25.281Z,12.65
2023-03-29T22:05:58.315Z,12.64
2023-03-29T22:08:27.362Z,12.59
2023-03-29T22:10:57.192Z,12.58
2023-03-29T22:13:28.965Z,12.60
2023-03-29T22:15:59.942Z,12.63
2023-03-29T22:18:30.285Z,12.55
2023-03-29T22:20:58.811Z,12.55
2023-03-29T22:23:27.076Z,12.50
2023-03-29T22:25:55.079Z,12.51
2023-03-29T22:28:23.794Z,12.49
2023-03-29T22:30:53.300Z,12.59
2023-03-29T22:33:21.680Z,12.58
2023-03-29T22:35:54.119Z,12.54
2023-03-29T22:38:22.254Z,12.61
2023-03-29T22:40:51.880Z,12.62
2023-03-29T22:43:20.145Z,12.55
2023-03-29T22:45:48.562Z,12.59
2023-03-29T22:48:18.131Z,12.63
2023-03-29T22:50:47.664Z,12.55
2023-03-29T22:53:16.975Z,12.56
2023-03-29T22:55:45.421Z,12.52
2023-03-29T22:58:13.689Z,12.56
2023-03-29T23:00:41.713Z,12.63
2023-03-29T23:03:09.732Z,12.65
2023-03-29T23:05:39.159Z,12.64
2023-03-29T23:08:07.530Z,12.59
2023-03-29T23:10:35.545Z,12.59
2023-03-29T23:13:09.559Z,12.62
2023-03-29T23:15:38.563Z,12.63
2023-03-29T23:18:07.039Z,12.58
2023-03-29T23:20:35.264Z,12.56
2023-03-29T23:23:04.690Z,12.51
2023-03-29T23:25:32.922Z,12.44
2023-03-29T23:28:01.057Z,12.32
2023-03-29T23:30:29.688Z,12.35
2023-03-29T23:32:58.285Z,12.36
2023-03-29T23:35:26.878Z,12.36
2023-03-29T23:37:55.294Z,12.38
2023-03-29T23:40:24.946Z,12.37
2023-03-29T23:42:53.111Z,12.44
2023-03-29T23:45:21.502Z,12.42
2023-03-29T23:47:49.681Z,12.43
2023-03-29T23:50:18.536Z,12.45
2023-03-29T23:52:47.184Z,12.39
2023-03-29T23:55:16.226Z,12.36
2023-03-29T23:57:45.755Z,12.37
